Latest Weather Observations for Ouse

IDT60801

Issued at 3:32 pm EST Sunday 20 August 2017 (issued every 30 minutes, with the page automatically refreshed every 10 minutes)

About weather observations | Map of weather stations | Latest weather observations for TAS | Other Formats
Station Details ID: 095048 Name: OUSE FIRE STATION Lat: -42.48 Lon: 146.71 Height: 90.0 m
Data from the previous 72 hours. | See also: Recent months at Ouse
Date/Time
EST
Temp
°C
App
Temp
°C
Dew
Point
°C
Rel
Hum
%
Delta-T
°C
Wind Press
QNH
hPa
Press
MSL
hPa
Rain since
9am
mm
Dir  Spd
km/h
Gust
km/h
Spd
kts
Gust
kts
20/03:30pm 11.4 7.5 3.4 58 3.5 WNW 13 19 7 10 1018.0 1018.2 0.0
20/03:00pm 11.7 8.3 4.0 59 3.5 WNW 11 15 6 8 1018.1 1018.3 0.0
20/02:30pm 10.8 7.4 4.0 63 3.0 WNW 11 19 6 10 1018.4 1018.6 0.0
20/02:00pm 11.2 8.0 4.9 65 2.9 W 11 17 6 9 1018.7 1018.9 0.0
20/01:30pm 11.6 7.9 4.3 61 3.3 W 13 20 7 11 1019.0 1019.2 0.0
20/01:00pm 10.9 7.9 4.1 63 3.0 WSW 9 13 5 7 1019.5 1019.7 0.0
20/12:30pm 10.9 6.4 4.4 64 2.9 WNW 17 22 9 12 1020.1 1020.3 0.0
20/12:00pm 10.9 7.6 4.4 64 2.9 W 11 17 6 9 1020.6 1020.8 0.0
20/11:30am 10.6 6.2 4.5 66 2.7 WNW 17 24 9 13 1021.2 1021.4 0.0
20/11:00am 10.3 6.3 4.9 69 2.4 NW 15 20 8 11 1021.6 1021.8 0.0
20/10:30am 9.5 4.6 4.3 70 2.3 NW 19 26 10 14 1021.9 1022.1 0.0
20/10:00am 9.1 4.3 4.5 73 2.0 NNW 19 28 10 15 1022.1 1022.3 0.0
20/09:30am 8.5 4.8 4.5 76 1.8 NNW 13 22 7 12 1022.2 1022.4 0.0
20/09:00am 4.6 1.5 3.6 93 0.4 N 9 13 5 7 1022.4 1022.6 0.0
20/08:30am 1.9 0.1 1.0 94 0.3 CALM 0 0 0 0 1022.7 1022.9 0.0
20/08:00am 0.7 -2.4 0.1 96 0.2 ESE 6 7 3 4 1022.8 1023.0 0.0
20/07:30am 0.1 -3.1 -0.3 97 0.1 E 6 9 3 5 1022.8 1023.0 0.0
20/07:00am 0.0 -2.8 -0.7 95 0.2 E 4 7 2 4 1022.6 1022.8 0.0
20/06:30am 0.2 -3.6 -0.9 92 0.4 ESE 9 15 5 8 1022.7 1022.9 0.0
20/06:00am 1.8 -2.2 0.3 90 0.6 N 11 17 6 9 1022.4 1022.6 0.0
20/05:30am 1.7 -2.3 0.2 90 0.6 N 11 13 6 7 1022.5 1022.7 0.0
20/05:00am 2.1 -2.6 0.8 91 0.5 N 15 20 8 11 1022.6 1022.8 0.0
20/04:30am 1.8 -2.5 0.9 94 0.3 N 13 15 7 8 1022.6 1022.8 0.0
20/04:00am 0.6 -3.0 0.3 98 0.1 N 9 15 5 8 1022.6 1022.8 0.0
20/03:30am 0.1 -3.3 -0.3 97 0.1 N 7 11 4 6 1022.7 1022.9 0.0
20/03:00am 0.2 -3.2 -0.5 95 0.3 NNW 7 13 4 7 1022.7 1022.9 0.0
20/02:30am 0.8 -2.6 -0.3 92 0.4 N 7 11 4 6 1022.9 1023.1 0.0
20/02:00am 2.1 -1.9 0.6 90 0.6 N 11 15 6 8 1023.2 1023.4 0.0
20/01:30am 2.2 -1.0 0.9 91 0.5 N 7 11 4 6 1023.4 1023.6 0.0
20/01:00am 2.1 -1.5 0.6 90 0.6 NNW 9 13 5 7 1023.4 1023.6 0.0
20/12:30am 1.8 -2.5 1.1 95 0.3 NNW 13 17 7 9 1023.5 1023.7 0.0
20/12:00am 1.5 -2.8 0.8 95 0.3 N 13 17 7 9 1023.7 1023.9 0.0
 
Date/Time
EST
Temp
°C
App
Temp
°C
Dew
Point
°C
Rel
Hum
%
Delta-T
°C
Wind Press
QNH
hPa
Press
MSL
hPa
Rain since
9am
mm
Dir  Spd
km/h
Gust
km/h
Spd
kts
Gust
kts
19/11:30pm 1.5 -2.5 0.8 95 0.3 N 11 15 6 8 1023.5 1023.7 0.0
19/11:00pm 1.4 -2.6 0.7 95 0.3 NNW 11 13 6 7 1023.5 1023.7 0.0
19/10:30pm 2.1 -1.5 0.9 92 0.5 N 9 15 5 8 1023.7 1023.9 0.0
19/10:00pm 2.8 -1.1 1.3 90 0.6 N 11 15 6 8 1023.8 1024.0 0.0
19/09:30pm 2.8 -1.4 1.5 91 0.5 NNE 13 17 7 9 1023.8 1024.0 0.0
19/09:00pm 3.1 -0.6 2.1 93 0.4 N 11 15 6 8 1023.8 1024.0 0.0
19/08:30pm 2.6 -0.5 1.1 90 0.6 NNW 7 11 4 6 1023.8 1024.0 0.0
19/08:00pm 4.3 0.7 2.7 89 0.6 NW 11 15 6 8 1023.8 1024.0 0.0
19/07:30pm 3.3 -0.1 1.8 90 0.6 NW 9 13 5 7 1023.9 1024.2 0.0
19/07:00pm 4.2 0.4 1.9 85 0.9 NNW 11 15 6 8 1024.0 1024.3 0.0
19/06:30pm 5.8 2.2 3.0 82 1.2 NW 11 17 6 9 1024.0 1024.3 0.0
19/06:00pm 6.3 2.3 3.1 80 1.3 WNW 13 19 7 10 1023.9 1024.2 0.0
19/05:30pm 6.9 2.2 3.0 76 1.6 W 17 22 9 12 1023.5 1023.7 0.0
19/05:00pm 7.7 3.7 2.6 70 2.1 WSW 13 19 7 10 1023.4 1023.6 0.0
19/04:30pm 8.6 5.4 2.8 67 2.5 SW 9 15 5 8 1023.2 1023.4 0.0
19/04:00pm 8.9 4.6 3.1 67 2.5 W 15 22 8 12 1023.0 1023.2 0.0
19/03:30pm 8.9 4.8 2.5 64 2.7 WSW 13 20 7 11 1022.9 1023.1 0.0
19/03:00pm 9.4 5.0 2.7 63 2.8 SSW 15 22 8 12 1022.8 1023.0 0.0
19/02:30pm 9.9 6.0 3.4 64 2.8 W 13 19 7 10 1022.8 1023.0 0.0
19/02:00pm 9.0 3.9 3.0 66 2.6 WSW 19 24 10 13 1022.8 1023.0 0.0
19/01:30pm 10.1 6.1 2.9 61 3.1 WSW 13 22 7 12 1022.6 1022.8 0.0
19/01:00pm 9.5 4.6 1.9 59 3.2 WSW 17 28 9 15 1022.7 1022.9 0.0
19/12:30pm 9.7 4.8 2.1 59 3.2 W 17 24 9 13 1022.8 1023.0 0.0
19/12:00pm 9.6 4.5 1.0 55 3.5 WSW 17 26 9 14 1022.8 1023.0 0.0
19/11:30am 9.6 5.4 1.8 58 3.3 WSW 13 20 7 11 1023.1 1023.3 0.0
19/11:00am 9.4 4.7 0.8 55 3.5 SW 15 24 8 13 1023.3 1023.5 0.0
19/10:30am 8.5 4.7 1.6 62 2.8 WNW 11 17 6 9 1023.5 1023.7 0.0
19/10:00am 8.1 4.3 1.5 63 2.7 WNW 11 20 6 11 1023.5 1023.7 0.0
19/09:30am 5.4 3.0 2.2 80 1.3 SE 4 7 2 4 1023.6 1023.8 0.0
19/09:00am 3.0 -0.2 0.6 84 0.9 SE 7 11 4 6 1023.6 1023.8 0.0
19/08:30am 1.6 -1.5 0.0 89 0.6 SSE 6 11 3 6 1023.4 1023.6 0.0
19/08:00am 1.1 -2.2 -0.2 91 0.5 ESE 7 11 4 6 1023.1 1023.3 0.0
19/07:30am -0.3 -3.2 -0.9 96 0.2 N 4 9 2 5 1022.7 1022.9 0.0
19/07:00am -0.1 -2.6 -1.1 93 0.3 SSE 2 6 1 3 1022.2 1022.4 0.0
19/06:30am 0.8 -1.2 -0.3 92 0.4 CALM 0 6 0 3 1021.7 1021.9 0.0
19/06:00am 0.8 -3.0 -0.5 91 0.5 SSE 9 13 5 7 1021.5 1021.7 0.0
19/05:30am 0.9 -2.5 -0.9 88 0.6 N 7 9 4 5 1021.0 1021.2 0.0
19/05:00am 1.8 -1.7 -1.1 81 1.0 NW 7 15 4 8 1020.5 1020.7 0.0
19/04:30am 3.4 -1.5 -0.2 77 1.3 WNW 15 20 8 11 1020.2 1020.4 0.0
19/04:00am 4.0 -1.6 0.0 75 1.5 WNW 19 22 10 12 1019.9 1020.1 0.0
19/03:30am 2.3 -1.7 0.2 86 0.8 W 11 15 6 8 1019.7 1019.9 0.0
19/03:00am 1.8 -0.9 0.3 90 0.6 SSE 4 9 2 5 1019.3 1019.5 0.0
19/02:30am 2.0 -1.0 0.5 90 0.6 NE 6 9 3 5 1019.0 1019.2 0.0
19/02:00am 2.8 -0.1 1.2 89 0.6 SSE 6 11 3 6 1019.1 1019.3 0.0
19/01:30am 2.6 -0.3 1.4 92 0.5 WNW 6 9 3 5 1018.8 1019.0 0.0
19/01:00am 2.0 -0.9 1.3 95 0.3 ESE 6 9 3 5 1018.5 1018.7 0.0
19/12:30am 1.3 -0.9 1.0 98 0.1 NNE 2 7 1 4 1018.1 1018.3 0.0
19/12:00am 0.9 -1.0 0.6 98 0.1 CALM 0 0 0 0 1017.7 1017.9 0.0
 
Date/Time
EST
Temp
°C
App
Temp
°C
Dew
Point
°C
Rel
Hum
%
Delta-T
°C
Wind Press
QNH
hPa
Press
MSL
hPa
Rain since
9am
mm
Dir  Spd
km/h
Gust
km/h
Spd
kts
Gust
kts
18/11:30pm 0.6 -1.8 0.0 96 0.2 W 2 7 1 4 1017.4 1017.6 0.0
18/11:00pm 1.8 -1.7 1.1 95 0.3 SW 9 13 5 7 1017.2 1017.4 0.0
18/10:30pm 2.0 -0.9 1.3 95 0.3 SE 6 11 3 6 1016.9 1017.1 0.0
18/10:00pm 2.2 -0.7 1.6 96 0.2 NNE 6 9 3 5 1016.5 1016.7 0.0
18/09:30pm 2.0 -0.2 1.1 94 0.3 NW 2 6 1 3 1016.0 1016.3 0.0
18/09:00pm 2.5 -0.4 1.3 92 0.5 N 6 9 3 5 1015.6 1015.9 0.0
18/08:30pm 3.8 0.8 2.0 88 0.7 E 7 9 4 5 1015.1 1015.4 0.0
18/08:00pm 4.8 1.8 2.3 84 1.0 ESE 7 9 4 5 1014.5 1014.7 0.0
18/07:30pm 5.3 2.3 2.0 79 1.3 SSW 7 11 4 6 1013.8 1014.0 0.0
18/07:00pm 5.7 1.9 2.0 77 1.5 SSE 11 15 6 8 1013.3 1013.5 0.0
18/06:30pm 5.4 2.4 1.9 78 1.4 SSW 7 9 4 5 1012.6 1012.8 0.0
18/06:00pm 5.9 2.4 1.2 72 1.9 S 9 15 5 8 1011.9 1012.1 0.0
18/05:30pm 6.3 2.4 1.4 71 2.0 SSE 11 17 6 9 1011.0 1011.2 0.0
18/05:00pm 7.3 3.1 1.8 68 2.3 SSE 13 19 7 10 1010.0 1010.2 0.0
18/04:30pm 7.4 3.7 2.5 71 2.0 SE 11 20 6 11 1009.3 1009.5 0.0
18/04:00pm 7.1 1.7 2.2 71 2.0 SSE 20 32 11 17 1008.4 1008.6 0.0
18/03:30pm 8.7 4.7 2.7 66 2.5 S 13 22 7 12 1007.6 1007.8 0.0
18/03:00pm 8.9 3.9 1.3 59 3.1 SSE 17 26 9 14 1007.0 1007.2 0.0
18/02:30pm 8.6 3.0 1.5 61 2.9 SSW 20 39 11 21 1006.3 1006.5 0.0
18/02:00pm 10.6 4.9 2.9 59 3.4 SW 22 37 12 20 1005.6 1005.7 0.0
18/01:30pm 9.8 3.8 0.9 54 3.7 SW 22 35 12 19 1005.2 1005.3 0.0
18/01:00pm 9.8 5.2 1.5 56 3.5 SSW 15 22 8 12 1004.6 1004.8 0.0
18/12:30pm 10.7 6.3 2.8 58 3.4 SSW 15 24 8 13 1004.2 1004.4 0.0
18/12:00pm 9.7 6.9 3.2 64 2.8 SSE 7 13 4 7 1003.9 1004.1 0.0
18/11:30am 9.4 7.7 3.8 68 2.5 SW 2 9 1 5 1003.7 1003.9 0.0
18/11:00am 9.2 6.8 5.2 76 1.8 ESE 7 9 4 5 1003.4 1003.6 0.0
18/10:30am 7.0 4.5 4.5 84 1.1 SSE 7 11 4 6 1003.1 1003.3 0.0
18/10:00am 6.2 4.9 4.0 86 0.9 CALM 0 0 0 0 1002.7 1002.9 0.0
18/09:30am 4.9 1.9 3.9 93 0.4 SE 9 13 5 7 1002.3 1002.5 0.0
18/09:00am 4.5 2.0 3.5 93 0.4 SSE 6 11 3 6 1001.8 1002.0 8.4
18/08:30am 3.9 2.1 3.6 98 0.1 S 2 6 1 3 1001.4 1001.6 8.4
18/08:00am 2.5 -0.4 2.5 100 0.0 S 7 9 4 5 1000.9 1001.1 8.4
18/07:30am 1.9 -1.1 1.9 100 0.0 SE 7 9 4 5 1000.3 1000.5 8.4
18/07:00am 1.9 -1.5 1.9 100 0.0 SW 9 11 5 6 999.7 999.9 8.4
18/06:30am 1.7 -1.7 1.7 100 0.0 WNW 9 17 5 9 999.2 999.4 8.4
18/06:00am 1.8 0.0 1.5 98 0.1 CALM 0 0 0 0 998.6 998.8 8.4
18/05:30am 2.9 -0.8 2.5 97 0.2 W 11 15 6 8 998.0 998.2 8.4
18/05:00am 2.2 -1.5 2.1 99 0.0 NNW 11 17 6 9 997.3 997.5 8.4
18/04:30am 2.6 -1.4 2.6 100 0.0 N 13 17 7 9 996.9 997.1 8.4
18/04:00am 1.6 -1.9 1.5 99 0.0 NNW 9 13 5 7 996.6 996.7 8.4
18/03:30am 2.7 -0.7 2.1 96 0.2 N 9 17 5 9 996.3 996.4 8.4
18/03:00am 2.4 -1.0 1.8 96 0.2 N 9 11 5 6 996.2 996.3 8.4
18/02:30am 2.3 -1.1 1.9 97 0.2 N 9 15 5 8 996.0 996.1 8.2
18/02:00am 2.4 -0.6 2.0 97 0.2 N 7 11 4 6 995.9 996.0 8.2
18/01:30am 2.5 -1.2 2.1 97 0.2 N 11 13 6 7 995.5 995.6 8.2
18/01:00am 3.1 -0.2 2.2 94 0.4 N 9 13 5 7 995.5 995.6 8.2
18/12:30am 3.6 -0.5 2.4 92 0.5 N 13 15 7 8 995.3 995.4 8.2
18/12:00am 3.7 -0.3 2.7 93 0.4 N 13 15 7 8 995.2 995.3 8.2
 
Date/Time
EST
Temp
°C
App
Temp
°C
Dew
Point
°C
Rel
Hum
%
Delta-T
°C
Wind Press
QNH
hPa
Press
MSL
hPa
Rain since
9am
mm
Dir  Spd
km/h
Gust
km/h
Spd
kts
Gust
kts
17/11:30pm 2.4 -1.0 2.0 97 0.2 N 9 13 5 7 995.1 995.2 8.2
17/11:00pm 3.7 0.0 2.5 92 0.5 NW 11 15 6 8 994.8 994.9 8.2
17/10:30pm 4.1 0.5 2.8 91 0.5 NNW 11 17 6 9 994.9 995.0 8.2
17/10:00pm 5.1 1.7 3.8 91 0.6 NNW 11 15 6 8 995.2 995.3 8.2
17/09:30pm 5.5 0.8 3.3 86 0.9 NNW 17 28 9 15 995.1 995.2 7.6
17/09:00pm 5.6 1.3 3.4 86 0.9 NW 15 24 8 13 994.4 994.5 7.6
17/08:30pm 5.1 1.3 3.8 91 0.5 NNW 13 20 7 11 994.3 994.4 7.6
17/08:00pm 4.7 1.9 3.4 91 0.5 NNW 7 13 4 7 994.2 994.3 7.6
17/07:30pm 5.4 2.0 3.9 90 0.6 NNW 11 17 6 9 993.9 994.0 7.6
17/07:00pm 5.9 2.6 4.5 91 0.6 N 11 20 6 11 993.6 993.7 7.4
17/06:30pm 6.1 1.6 4.4 89 0.7 N 17 26 9 14 993.1 993.3 7.0
17/06:00pm 5.9 2.2 4.4 90 0.7 NW 13 17 7 9 992.6 992.8 7.0
17/05:30pm 6.8 3.8 4.3 84 1.1 NNW 9 11 5 6 992.2 992.4 5.2
17/05:00pm 7.8 4.9 4.6 80 1.4 NNW 9 17 5 9 991.7 991.9 5.2
17/04:30pm 8.0 3.8 4.0 76 1.7 NNW 15 20 8 11 991.0 991.2 5.2
17/04:00pm 8.8 5.1 4.4 74 2.0 NNW 13 24 7 13 990.8 991.0 5.2

Other Formats:

Comma delimited format used in spreadsheet applications
http://www.bom.gov.au/fwo/IDT60801/IDT60801.94957.axf

JavaScript Object Notation format (JSON) in row-major order
http://www.bom.gov.au/fwo/IDT60801/IDT60801.94957.json